sensor_id;sensor_type;location;lat;lon;timestamp;pressure;altitude;pressure_sealevel;temperature;humidity
12475;BME280;6302;42.624;23.334;2023-04-30T00:01:26;92990.63;;;10.38;100.00
12475;BME280;6302;42.624;23.334;2023-04-30T00:03:53;92994.84;;;10.32;100.00
12475;BME280;6302;42.624;23.334;2023-04-30T00:06:20;92993.38;;;10.28;100.00
12475;BME280;6302;42.624;23.334;2023-04-30T00:08:47;92997.97;;;10.24;100.00
12475;BME280;6302;42.624;23.334;2023-04-30T00:11:13;92997.22;;;10.23;100.00
12475;BME280;6302;42.624;23.334;2023-04-30T00:13:40;92995.38;;;10.20;100.00
12475;BME280;6302;42.624;23.334;2023-04-30T00:16:07;92992.41;;;10.15;100.00
12475;BME280;6302;42.624;23.334;2023-04-30T00:18:36;92993.22;;;10.12;100.00
12475;BME280;6302;42.624;23.334;2023-04-30T00:21:03;92995.84;;;10.08;100.00
12475;BME280;6302;42.624;23.334;2023-04-30T00:23:30;92993.63;;;10.03;100.00
12475;BME280;6302;42.624;23.334;2023-04-30T00:25:57;92994.41;;;10.00;100.00
12475;BME280;6302;42.624;23.334;2023-04-30T00:28:24;92998.59;;;9.98;100.00
12475;BME280;6302;42.624;23.334;2023-04-30T00:30:50;92987.66;;;9.96;100.00
12475;BME280;6302;42.624;23.334;2023-04-30T00:33:17;92992.25;;;9.92;100.00
12475;BME280;6302;42.624;23.334;2023-04-30T00:35:45;92988.88;;;9.88;100.00
12475;BME280;6302;42.624;23.334;2023-04-30T00:38:12;92987.38;;;9.87;100.00
12475;BME280;6302;42.624;23.334;2023-04-30T00:40:40;92989.72;;;9.81;100.00
12475;BME280;6302;42.624;23.334;2023-04-30T00:43:07;92993.09;;;9.81;100.00
12475;BME280;6302;42.624;23.334;2023-04-30T00:45:34;92985.56;;;9.80;100.00
12475;BME280;6302;42.624;23.334;2023-04-30T00:48:01;92982.53;;;9.78;100.00
12475;BME280;6302;42.624;23.334;2023-04-30T00:50:28;92980.31;;;9.76;100.00
12475;BME280;6302;42.624;23.334;2023-04-30T00:52:56;92983.72;;;9.73;100.00
12475;BME280;6302;42.624;23.334;2023-04-30T00:55:24;92977.34;;;9.71;100.00
12475;BME280;6302;42.624;23.334;2023-04-30T00:57:52;92979.28;;;9.67;100.00
12475;BME280;6302;42.624;23.334;2023-04-30T01:00:19;92988.34;;;9.66;100.00
12475;BME280;6302;42.624;23.334;2023-04-30T01:02:46;92986.88;;;9.61;100.00
12475;BME280;6302;42.624;23.334;2023-04-30T01:05:13;92983.13;;;9.59;100.00
12475;BME280;6302;42.624;23.334;2023-04-30T01:07:40;92976.38;;;9.54;100.00
12475;BME280;6302;42.624;23.334;2023-04-30T01:10:12;92975.25;;;9.52;100.00
12475;BME280;6302;42.624;23.334;2023-04-30T01:12:45;92976.03;;;9.49;100.00
12475;BME280;6302;42.624;23.334;2023-04-30T01:15:20;92980.22;;;9.46;100.00
12475;BME280;6302;42.624;23.334;2023-04-30T01:17:53;92991.19;;;9.45;100.00
12475;BME280;6302;42.624;23.334;2023-04-30T01:20:21;92988.56;;;9.41;100.00
12475;BME280;6302;42.624;23.334;2023-04-30T01:22:54;92984.03;;;9.38;100.00
12475;BME280;6302;42.624;23.334;2023-04-30T01:28:27;92989.78;;;9.33;100.00
12475;BME280;6302;42.624;23.334;2023-04-30T01:30:53;92984.91;;;9.28;100.00
12475;BME280;6302;42.624;23.334;2023-04-30T01:33:20;92980.00;;;9.27;100.00
12475;BME280;6302;42.624;23.334;2023-04-30T01:36:12;92978.13;;;9.24;100.00
12475;BME280;6302;42.624;23.334;2023-04-30T01:38:57;92971.72;;;9.21;100.00
12475;BME280;6302;42.624;23.334;2023-04-30T01:41:31;92977.41;;;9.20;100.00
12475;BME280;6302;42.624;23.334;2023-04-30T01:44:11;92981.94;;;9.19;100.00
12475;BME280;6302;42.624;23.334;2023-04-30T01:46:47;92980.84;;;9.16;100.00
12475;BME280;6302;42.624;23.334;2023-04-30T01:49:21;92987.63;;;9.18;100.00
12475;BME280;6302;42.624;23.334;2023-04-30T01:51:57;92952.28;;;8.97;100.00
12475;BME280;6302;42.624;23.334;2023-04-30T01:54:30;92982.38;;;9.14;100.00
12475;BME280;6302;42.624;23.334;2023-04-30T01:57:05;92977.06;;;9.14;100.00
12475;BME280;6302;42.624;23.334;2023-04-30T01:59:34;92979.00;;;9.10;100.00
12475;BME280;6302;42.624;23.334;2023-04-30T02:02:02;92977.88;;;9.07;100.00
12475;BME280;6302;42.624;23.334;2023-04-30T02:04:29;92983.94;;;9.08;100.00
12475;BME280;6302;42.624;23.334;2023-04-30T02:06:55;92969.66;;;8.98;100.00
12475;BME280;6302;42.624;23.334;2023-04-30T02:09:23;92979.06;;;9.03;100.00
12475;BME280;6302;42.624;23.334;2023-04-30T02:11:50;92976.41;;;9.03;100.00
12475;BME280;6302;42.624;23.334;2023-04-30T02:14:17;92979.41;;;9.05;100.00
12475;BME280;6302;42.624;23.334;2023-04-30T02:16:45;92977.53;;;9.02;100.00
12475;BME280;6302;42.624;23.334;2023-04-30T02:19:12;92976.44;;;8.99;100.00
12475;BME280;6302;42.624;23.334;2023-04-30T02:21:38;92972.66;;;9.00;100.00
12475;BME280;6302;42.624;23.334;2023-04-30T02:24:06;92971.16;;;8.99;100.00
12475;BME280;6302;42.624;23.334;2023-04-30T02:26:32;92971.53;;;8.98;100.00
12475;BME280;6302;42.624;23.334;2023-04-30T02:29:01;92971.19;;;8.96;100.00
12475;BME280;6302;42.624;23.334;2023-04-30T02:31:28;92979.50;;;8.94;100.00
12475;BME280;6302;42.624;23.334;2023-04-30T02:33:56;92970.44;;;8.92;100.00
12475;BME280;6302;42.624;23.334;2023-04-30T02:36:23;92973.47;;;8.90;100.00
12475;BME280;6302;42.624;23.334;2023-04-30T02:38:50;92950.22;;;8.71;100.00
12475;BME280;6302;42.624;23.334;2023-04-30T02:41:17;92970.09;;;8.90;100.00
12475;BME280;6302;42.624;23.334;2023-04-30T02:43:44;92979.53;;;8.91;100.00
12475;BME280;6302;42.624;23.334;2023-04-30T02:46:10;92978.78;;;8.90;100.00
12475;BME280;6302;42.624;23.334;2023-04-30T02:48:37;92973.44;;;8.94;100.00
12475;BME280;6302;42.624;23.334;2023-04-30T02:51:05;92971.19;;;8.96;100.00
12475;BME280;6302;42.624;23.334;2023-04-30T02:53:32;92974.97;;;8.95;100.00
12475;BME280;6302;42.624;23.334;2023-04-30T02:55:59;92984.41;;;8.96;100.00
12475;BME280;6302;42.624;23.334;2023-04-30T02:58:26;92976.78;;;9.01;100.00
12475;BME280;6302;42.624;23.334;2023-04-30T03:00:52;92982.47;;;9.03;100.00
12475;BME280;6302;42.624;23.334;2023-04-30T03:03:20;92989.22;;;9.08;100.00
12475;BME280;6302;42.624;23.334;2023-04-30T03:05:47;92987.00;;;9.03;100.00
12475;BME280;6302;42.624;23.334;2023-04-30T03:08:15;92990.00;;;9.05;100.00
12475;BME280;6302;42.624;23.334;2023-04-30T03:10:42;92975.66;;;8.99;100.00
12475;BME280;6302;42.624;23.334;2023-04-30T03:13:09;92998.97;;;9.18;100.00
12475;BME280;6302;42.624;23.334;2023-04-30T03:15:35;92994.41;;;9.22;100.00
12475;BME280;6302;42.624;23.334;2023-04-30T03:18:03;92995.50;;;9.28;100.00
12475;BME280;6302;42.624;23.334;2023-04-30T03:20:29;93002.63;;;9.31;100.00
12475;BME280;6302;42.624;23.334;2023-04-30T03:22:56;92998.81;;;9.36;100.00
12475;BME280;6302;42.624;23.334;2023-04-30T03:25:24;93003.31;;;9.42;100.00
12475;BME280;6302;42.624;23.334;2023-04-30T03:27:51;92994.59;;;9.45;100.00
12475;BME280;6302;42.624;23.334;2023-04-30T03:30:18;93000.94;;;9.51;100.00
12475;BME280;6302;42.624;23.334;2023-04-30T03:32:45;92998.66;;;9.53;100.00
12475;BME280;6302;42.624;23.334;2023-04-30T03:35:12;92997.09;;;9.59;100.00
12475;BME280;6302;42.624;23.334;2023-04-30T03:37:38;92997.03;;;9.66;100.00
12475;BME280;6302;42.624;23.334;2023-04-30T03:40:07;93003.03;;;9.70;100.00
12475;BME280;6302;42.624;23.334;2023-04-30T03:42:35;93003.03;;;9.70;100.00
12475;BME280;6302;42.624;23.334;2023-04-30T03:45:02;93007.91;;;9.75;100.00
12475;BME280;6302;42.624;23.334;2023-04-30T03:47:29;93016.56;;;9.79;100.00
12475;BME280;6302;42.624;23.334;2023-04-30T03:49:56;93012.03;;;9.80;100.00
12475;BME280;6302;42.624;23.334;2023-04-30T03:52:22;93015.00;;;9.86;100.00
12475;BME280;6302;42.624;23.334;2023-04-30T03:54:50;93010.03;;;9.88;100.00
12475;BME280;6302;42.624;23.334;2023-04-30T03:57:20;93017.97;;;9.91;100.00
12475;BME280;6302;42.624;23.334;2023-04-30T03:59:49;92981.13;;;9.70;100.00
12475;BME280;6302;42.624;23.334;2023-04-30T04:02:16;93022.06;;;9.99;100.00
12475;BME280;6302;42.624;23.334;2023-04-30T04:04:43;93016.69;;;10.03;100.00
12475;BME280;6302;42.624;23.334;2023-04-30T04:07:10;93023.09;;;10.09;100.00
12475;BME280;6302;42.624;23.334;2023-04-30T04:09:37;93027.63;;;10.12;100.00
12475;BME280;6302;42.624;23.334;2023-04-30T04:12:04;93027.19;;;10.17;100.00
12475;BME280;6302;42.624;23.334;2023-04-30T04:14:31;93022.25;;;10.19;100.00
12475;BME280;6302;42.624;23.334;2023-04-30T04:16:59;93023.72;;;10.23;100.00
12475;BME280;6302;42.624;23.334;2023-04-30T04:19:26;93027.47;;;10.26;100.00
12475;BME280;6302;42.624;23.334;2023-04-30T04:21:53;93026.25;;;10.34;100.00
12475;BME280;6302;42.624;23.334;2023-04-30T04:24:20;93014.66;;;10.21;100.00
12475;BME280;6302;42.624;23.334;2023-04-30T04:26:47;93037.44;;;10.45;100.00
12475;BME280;6302;42.624;23.334;2023-04-30T04:29:13;93039.41;;;10.41;100.00
12475;BME280;6302;42.624;23.334;2023-04-30T04:31:40;93041.19;;;10.51;100.00
12475;BME280;6302;42.624;23.334;2023-04-30T04:34:09;93037.34;;;10.56;100.00
12475;BME280;6302;42.624;23.334;2023-04-30T04:36:35;93037.22;;;10.66;100.00
12475;BME280;6302;42.624;23.334;2023-04-30T04:39:03;93049.19;;;10.78;100.00
12475;BME280;6302;42.624;23.334;2023-04-30T04:41:30;93043.44;;;10.83;100.00
12475;BME280;6302;42.624;23.334;2023-04-30T04:43:58;93046.00;;;10.90;100.00
12475;BME280;6302;42.624;23.334;2023-04-30T04:46:26;93053.81;;;11.00;100.00
12475;BME280;6302;42.624;23.334;2023-04-30T04:48:54;93060.50;;;11.08;100.00
12475;BME280;6302;42.624;23.334;2023-04-30T04:51:22;93055.59;;;11.07;100.00
12475;BME280;6302;42.624;23.334;2023-04-30T04:53:48;93062.81;;;11.06;100.00
12475;BME280;6302;42.624;23.334;2023-04-30T04:56:15;93063.16;;;11.08;100.00
12475;BME280;6302;42.624;23.334;2023-04-30T04:58:43;93060.16;;;11.06;100.00
12475;BME280;6302;42.624;23.334;2023-04-30T05:01:10;93068.41;;;11.12;100.00
12475;BME280;6302;42.624;23.334;2023-04-30T05:03:37;93074.06;;;11.14;100.00
12475;BME280;6302;42.624;23.334;2023-04-30T05:06:05;93072.50;;;11.17;100.00
12475;BME280;6302;42.624;23.334;2023-04-30T05:08:33;93067.56;;;11.19;100.00
12475;BME280;6302;42.624;23.334;2023-04-30T05:11:00;93069.41;;;11.22;100.00
12475;BME280;6302;42.624;23.334;2023-04-30T05:13:27;93068.28;;;11.23;100.00
12475;BME280;6302;42.624;23.334;2023-04-30T05:15:54;93074.63;;;11.29;100.00
12475;BME280;6302;42.624;23.334;2023-04-30T05:18:21;93072.31;;;11.31;100.00
12475;BME280;6302;42.624;23.334;2023-04-30T05:20:48;93069.97;;;11.36;100.00
12475;BME280;6302;42.624;23.334;2023-04-30T05:23:15;93068.75;;;11.41;100.00
12475;BME280;6302;42.624;23.334;2023-04-30T05:25:43;93070.31;;;11.38;100.00
12475;BME280;6302;42.624;23.334;2023-04-30T05:28:10;93070.59;;;11.44;100.00
12475;BME280;6302;42.624;23.334;2023-04-30T05:30:37;93074.38;;;11.46;100.00
12475;BME280;6302;42.624;23.334;2023-04-30T05:33:04;93064.97;;;11.42;100.00
12475;BME280;6302;42.624;23.334;2023-04-30T05:35:31;93070.91;;;11.49;100.00
12475;BME280;6302;42.624;23.334;2023-04-30T05:38:00;93075.81;;;11.51;100.00
12475;BME280;6302;42.624;23.334;2023-04-30T05:40:27;93073.53;;;11.53;100.00
12475;BME280;6302;42.624;23.334;2023-04-30T05:42:55;93071.13;;;11.58;100.00
12475;BME280;6302;42.624;23.334;2023-04-30T05:45:22;93071.91;;;11.59;100.00
12475;BME280;6302;42.624;23.334;2023-04-30T05:47:49;93065.91;;;11.55;100.00
12475;BME280;6302;42.624;23.334;2023-04-30T05:50:16;93066.59;;;11.59;100.00
12475;BME280;6302;42.624;23.334;2023-04-30T05:52:43;93065.44;;;11.60;100.00
12475;BME280;6302;42.624;23.334;2023-04-30T05:55:09;93071.22;;;11.55;100.00
12475;BME280;6302;42.624;23.334;2023-04-30T05:57:36;93067.38;;;11.56;100.00
12475;BME280;6302;42.624;23.334;2023-04-30T06:00:06;93072.81;;;11.49;100.00
12475;BME280;6302;42.624;23.334;2023-04-30T06:02:33;93070.50;;;11.51;100.00
12475;BME280;6302;42.624;23.334;2023-04-30T06:05:00;93075.69;;;11.58;100.00
12475;BME280;6302;42.624;23.334;2023-04-30T06:07:27;93079.38;;;11.67;100.00
12475;BME280;6302;42.624;23.334;2023-04-30T06:09:55;93080.66;;;11.83;100.00
12475;BME280;6302;42.624;23.334;2023-04-30T06:12:22;93083.47;;;11.95;100.00
12475;BME280;6302;42.624;23.334;2023-04-30T06:14:48;93084.09;;;12.03;100.00
12475;BME280;6302;42.624;23.334;2023-04-30T06:17:17;93088.44;;;12.16;100.00
12475;BME280;6302;42.624;23.334;2023-04-30T06:19:43;93086.25;;;12.11;100.00
12475;BME280;6302;42.624;23.334;2023-04-30T06:22:11;93094.09;;;12.18;100.00
12475;BME280;6302;42.624;23.334;2023-04-30T06:24:38;93094.09;;;12.18;100.00
12475;BME280;6302;42.624;23.334;2023-04-30T06:27:05;93087.63;;;12.19;100.00
12475;BME280;6302;42.624;23.334;2023-04-30T06:29:32;93094.19;;;12.34;100.00
12475;BME280;6302;42.624;23.334;2023-04-30T06:31:59;93092.09;;;12.46;100.00
12475;BME280;6302;42.624;23.334;2023-04-30T06:34:27;93096.13;;;12.54;100.00
12475;BME280;6302;42.624;23.334;2023-04-30T06:36:55;93096.00;;;12.61;100.00
12475;BME280;6302;42.624;23.334;2023-04-30T06:39:22;93097.00;;;12.67;100.00
12475;BME280;6302;42.624;23.334;2023-04-30T06:41:48;93096.28;;;12.86;100.00
12475;BME280;6302;42.624;23.334;2023-04-30T06:44:16;93101.44;;;12.93;100.00
12475;BME280;6302;42.624;23.334;2023-04-30T06:46:43;93110.09;;;12.97;100.00
12475;BME280;6302;42.624;23.334;2023-04-30T06:49:10;93107.66;;;13.06;100.00
12475;BME280;6302;42.624;23.334;2023-04-30T06:51:40;93112.47;;;13.11;100.00
12475;BME280;6302;42.624;23.334;2023-04-30T06:54:07;93111.00;;;13.10;100.00
12475;BME280;6302;42.624;23.334;2023-04-30T06:56:34;93115.53;;;13.29;100.00
12475;BME280;6302;42.624;23.334;2023-04-30T06:59:00;93103.88;;;13.59;100.00
12475;BME280;6302;42.624;23.334;2023-04-30T07:01:28;93111.09;;;13.58;100.00
12475;BME280;6302;42.624;23.334;2023-04-30T07:03:55;93109.25;;;13.55;100.00
12475;BME280;6302;42.624;23.334;2023-04-30T07:06:21;93110.84;;;13.53;100.00
12475;BME280;6302;42.624;23.334;2023-04-30T07:08:49;93109.44;;;13.64;100.00
12475;BME280;6302;42.624;23.334;2023-04-30T07:11:16;93107.13;;;13.66;100.00
12475;BME280;6302;42.624;23.334;2023-04-30T07:13:43;93105.31;;;13.80;100.00
12475;BME280;6302;42.624;23.334;2023-04-30T07:16:10;93105.47;;;13.89;100.00
12475;BME280;6302;42.624;23.334;2023-04-30T07:18:37;93106.31;;;14.02;100.00
12475;BME280;6302;42.624;23.334;2023-04-30T07:21:05;93116.63;;;14.00;100.00
12475;BME280;6302;42.624;23.334;2023-04-30T07:23:32;93119.78;;;13.95;100.00
12475;BME280;6302;42.624;23.334;2023-04-30T07:26:01;93114.28;;;14.02;100.00
12475;BME280;6302;42.624;23.334;2023-04-30T07:28:27;93115.28;;;13.92;100.00
12475;BME280;6302;42.624;23.334;2023-04-30T07:30:54;93095.31;;;13.67;100.00
12475;BME280;6302;42.624;23.334;2023-04-30T07:33:21;93117.19;;;13.91;100.00
12475;BME280;6302;42.624;23.334;2023-04-30T07:35:48;93110.63;;;13.96;100.00
12475;BME280;6302;42.624;23.334;2023-04-30T07:38:15;93112.31;;;13.90;100.00
12475;BME280;6302;42.624;23.334;2023-04-30T07:40:43;93107.47;;;13.85;100.00
12475;BME280;6302;42.624;23.334;2023-04-30T07:43:11;93118.94;;;13.98;100.00
12475;BME280;6302;42.624;23.334;2023-04-30T07:45:38;93113.97;;;14.00;100.00
12475;BME280;6302;42.624;23.334;2023-04-30T07:48:05;93122.50;;;14.07;100.00
12475;BME280;6302;42.624;23.334;2023-04-30T07:50:31;93116.47;;;14.07;100.00
12475;BME280;6302;42.624;23.334;2023-04-30T07:52:59;93124.59;;;14.16;100.00
12475;BME280;6302;42.624;23.334;2023-04-30T07:55:26;93123.09;;;14.15;100.00
12475;BME280;6302;42.624;23.334;2023-04-30T07:57:53;93113.88;;;14.19;100.00
12475;BME280;6302;42.624;23.334;2023-04-30T08:00:21;93133.03;;;14.30;100.00
12475;BME280;6302;42.624;23.334;2023-04-30T08:02:48;93131.44;;;14.33;100.00
12475;BME280;6302;42.624;23.334;2023-04-30T08:05:15;93133.34;;;14.32;100.00
12475;BME280;6302;42.624;23.334;2023-04-30T08:07:41;93130.09;;;14.41;100.00
12475;BME280;6302;42.624;23.334;2023-04-30T08:10:09;93130.44;;;14.43;100.00
12475;BME280;6302;42.624;23.334;2023-04-30T08:12:36;93138.91;;;14.54;99.00
12475;BME280;6302;42.624;23.334;2023-04-30T08:15:04;93131.06;;;14.63;94.94
12475;BME280;6302;42.624;23.334;2023-04-30T08:17:33;93129.66;;;14.59;94.94
12475;BME280;6302;42.624;23.334;2023-04-30T08:20:00;93136.47;;;14.60;98.17
12475;BME280;6302;42.624;23.334;2023-04-30T08:22:27;93133.72;;;14.63;94.94
12475;BME280;6302;42.624;23.334;2023-04-30T08:24:54;93136.06;;;14.61;95.29
12475;BME280;6302;42.624;23.334;2023-04-30T08:27:21;93135.88;;;14.68;94.62
12475;BME280;6302;42.624;23.334;2023-04-30T08:29:48;93137.28;;;14.73;91.57
12475;BME280;6302;42.624;23.334;2023-04-30T08:32:15;93149.03;;;14.75;90.87
12475;BME280;6302;42.624;23.334;2023-04-30T08:34:43;93126.09;;;14.49;89.85
12475;BME280;6302;42.624;23.334;2023-04-30T08:37:10;93140.91;;;14.50;89.61
12475;BME280;6302;42.624;23.334;2023-04-30T08:39:37;93155.56;;;14.58;87.83
12475;BME280;6302;42.624;23.334;2023-04-30T08:42:07;93139.66;;;14.55;87.38
12475;BME280;6302;42.624;23.334;2023-04-30T08:44:35;93136.41;;;14.63;86.92
12475;BME280;6302;42.624;23.334;2023-04-30T08:47:05;93144.34;;;14.79;82.35
12475;BME280;6302;42.624;23.334;2023-04-30T08:49:34;93137.78;;;14.96;85.24
12475;BME280;6302;42.624;23.334;2023-04-30T08:52:02;93132.81;;;15.11;83.21
12475;BME280;6302;42.624;23.334;2023-04-30T08:54:30;93138.97;;;15.37;84.25
12475;BME280;6302;42.624;23.334;2023-04-30T08:56:57;93135.38;;;15.56;79.95
12475;BME280;6302;42.624;23.334;2023-04-30T08:59:24;93134.84;;;15.86;75.71
12475;BME280;6302;42.624;23.334;2023-04-30T09:01:51;93123.31;;;15.89;77.45
12475;BME280;6302;42.624;23.334;2023-04-30T09:04:17;93123.94;;;15.93;76.20
12475;BME280;6302;42.624;23.334;2023-04-30T09:06:44;93128.53;;;16.05;73.58
12475;BME280;6302;42.624;23.334;2023-04-30T09:09:14;93121.75;;;16.26;72.85
12475;BME280;6302;42.624;23.334;2023-04-30T09:11:41;93117.72;;;16.21;74.13
12475;BME280;6302;42.624;23.334;2023-04-30T09:14:08;93113.31;;;16.27;74.88
12475;BME280;6302;42.624;23.334;2023-04-30T09:16:46;93117.31;;;16.57;70.68
12475;BME280;6302;42.624;23.334;2023-04-30T09:19:23;93106.56;;;16.70;68.64
12475;BME280;6302;42.624;23.334;2023-04-30T09:21:50;93097.88;;;16.78;66.93
12475;BME280;6302;42.624;23.334;2023-04-30T09:24:18;93101.78;;;16.86;69.02
12475;BME280;6302;42.624;23.334;2023-04-30T09:26:45;93095.44;;;16.93;68.86
12475;BME280;6302;42.624;23.334;2023-04-30T09:29:12;93097.88;;;17.31;68.73
12475;BME280;6302;42.624;23.334;2023-04-30T09:31:42;93086.50;;;17.39;67.52
12475;BME280;6302;42.624;23.334;2023-04-30T09:34:09;93083.22;;;17.66;67.70
12475;BME280;6302;42.624;23.334;2023-04-30T09:36:36;93084.34;;;17.96;64.04
12475;BME280;6302;42.624;23.334;2023-04-30T09:39:06;93071.34;;;17.76;61.77
12475;BME280;6302;42.624;23.334;2023-04-30T09:41:37;93078.50;;;17.79;63.15
12475;BME280;6302;42.624;23.334;2023-04-30T09:44:04;93072.97;;;17.83;61.50
12475;BME280;6302;42.624;23.334;2023-04-30T09:46:32;93061.78;;;17.66;61.22
12475;BME280;6302;42.624;23.334;2023-04-30T09:49:01;93064.91;;;17.65;60.32
12475;BME280;6302;42.624;23.334;2023-04-30T09:51:28;93062.13;;;17.86;61.17
12475;BME280;6302;42.624;23.334;2023-04-30T09:53:55;93052.69;;;17.73;59.23
12475;BME280;6302;42.624;23.334;2023-04-30T09:56:23;93067.97;;;17.54;59.51
12475;BME280;6302;42.624;23.334;2023-04-30T09:58:53;93056.00;;;17.68;59.35
12475;BME280;6302;42.624;23.334;2023-04-30T10:01:25;93057.94;;;17.76;60.73
12475;BME280;6302;42.624;23.334;2023-04-30T10:03:52;93060.41;;;17.62;60.13
12475;BME280;6302;42.624;23.334;2023-04-30T10:06:20;93053.19;;;17.49;60.93
12475;BME280;6302;42.624;23.334;2023-04-30T10:08:50;93057.59;;;17.34;60.24
12475;BME280;6302;42.624;23.334;2023-04-30T10:11:20;93048.78;;;17.25;63.13
12475;BME280;6302;42.624;23.334;2023-04-30T10:13:53;93050.88;;;17.30;64.10
12475;BME280;6302;42.624;23.334;2023-04-30T10:16:28;93040.97;;;17.48;62.77
12475;BME280;6302;42.624;23.334;2023-04-30T10:18:58;93045.84;;;17.63;58.47
12475;BME280;6302;42.624;23.334;2023-04-30T10:21:28;93052.47;;;17.89;58.16
12475;BME280;6302;42.624;23.334;2023-04-30T10:23:57;93044.72;;;17.91;56.07
12475;BME280;6302;42.624;23.334;2023-04-30T10:26:24;93044.06;;;17.69;57.98
12475;BME280;6302;42.624;23.334;2023-04-30T10:28:53;93049.59;;;17.43;61.14
12475;BME280;6302;42.624;23.334;2023-04-30T10:31:23;93044.47;;;17.27;62.92
12475;BME280;6302;42.624;23.334;2023-04-30T10:33:59;93053.47;;;17.12;63.37
12475;BME280;6302;42.624;23.334;2023-04-30T10:36:36;93084.16;;;16.76;70.35
12475;BME280;6302;42.624;23.334;2023-04-30T10:39:06;93080.25;;;15.87;75.51
12475;BME280;6302;42.624;23.334;2023-04-30T10:41:33;93080.44;;;15.30;84.58
12475;BME280;6302;42.624;23.334;2023-04-30T10:44:02;93095.25;;;14.48;99.83
12475;BME280;6302;42.624;23.334;2023-04-30T10:46:30;93106.63;;;14.04;100.00
12475;BME280;6302;42.624;23.334;2023-04-30T10:48:56;93095.66;;;13.69;100.00
12475;BME280;6302;42.624;23.334;2023-04-30T10:51:43;93094.97;;;13.82;100.00
12475;BME280;6302;42.624;23.334;2023-04-30T10:54:10;93089.13;;;14.03;100.00
12475;BME280;6302;42.624;23.334;2023-04-30T10:56:39;93085.94;;;14.40;100.00
12475;BME280;6302;42.624;23.334;2023-04-30T10:59:07;93081.28;;;14.73;100.00
12475;BME280;6302;42.624;23.334;2023-04-30T11:01:53;93073.78;;;15.22;100.00
12475;BME280;6302;42.624;23.334;2023-04-30T11:04:20;93070.41;;;15.59;100.00
12475;BME280;6302;42.624;23.334;2023-04-30T11:06:48;93073.50;;;15.83;100.00
12475;BME280;6302;42.624;23.334;2023-04-30T11:09:33;93072.78;;;16.29;100.00
12475;BME280;6302;42.624;23.334;2023-04-30T11:12:02;93080.91;;;16.60;100.00
12475;BME280;6302;42.624;23.334;2023-04-30T11:14:32;93074.44;;;16.91;100.00
12475;BME280;6302;42.624;23.334;2023-04-30T11:16:59;93078.63;;;16.92;100.00
12475;BME280;6302;42.624;23.334;2023-04-30T11:19:27;93078.69;;;17.02;97.44
12475;BME280;6302;42.624;23.334;2023-04-30T11:22:16;93079.44;;;16.80;87.71
12475;BME280;6302;42.624;23.334;2023-04-30T11:24:59;93079.94;;;16.88;94.70
12475;BME280;6302;42.624;23.334;2023-04-30T11:27:29;93074.84;;;16.81;87.79
12475;BME280;6302;42.624;23.334;2023-04-30T11:29:57;93070.47;;;16.96;80.31
12475;BME280;6302;42.624;23.334;2023-04-30T11:32:25;93062.75;;;16.98;84.74
12475;BME280;6302;42.624;23.334;2023-04-30T11:34:53;93076.72;;;16.93;79.07
12475;BME280;6302;42.624;23.334;2023-04-30T11:37:24;93070.88;;;16.85;82.05
12475;BME280;6302;42.624;23.334;2023-04-30T11:39:56;93077.69;;;16.65;79.58
12475;BME280;6302;42.624;23.334;2023-04-30T11:42:23;93069.28;;;16.54;79.31
12475;BME280;6302;42.624;23.334;2023-04-30T11:44:49;93072.22;;;16.68;80.86
12475;BME280;6302;42.624;23.334;2023-04-30T11:47:17;93066.69;;;16.84;84.37
12475;BME280;6302;42.624;23.334;2023-04-30T11:49:44;93066.66;;;17.06;72.61
12475;BME280;6302;42.624;23.334;2023-04-30T11:52:12;93063.56;;;17.38;70.08
12475;BME280;6302;42.624;23.334;2023-04-30T11:54:39;93066.91;;;17.51;66.43
12475;BME280;6302;42.624;23.334;2023-04-30T11:57:05;93061.06;;;17.44;67.22
12475;BME280;6302;42.624;23.334;2023-04-30T11:59:39;93064.47;;;17.35;74.12
12475;BME280;6302;42.624;23.334;2023-04-30T12:02:06;93060.25;;;17.25;79.12
12475;BME280;6302;42.624;23.334;2023-04-30T12:04:35;93058.03;;;17.02;84.06
12475;BME280;6302;42.624;23.334;2023-04-30T12:07:02;93054.47;;;17.05;84.34
12475;BME280;6302;42.624;23.334;2023-04-30T12:09:29;93048.16;;;17.21;82.88
12475;BME280;6302;42.624;23.334;2023-04-30T12:11:56;93045.66;;;17.26;75.92
12475;BME280;6302;42.624;23.334;2023-04-30T12:14:24;93041.78;;;17.27;78.49
12475;BME280;6302;42.624;23.334;2023-04-30T12:16:51;93050.50;;;17.40;78.88
12475;BME280;6302;42.624;23.334;2023-04-30T12:19:19;93048.53;;;17.41;81.84
12475;BME280;6302;42.624;23.334;2023-04-30T12:21:48;93055.88;;;17.19;82.78
12475;BME280;6302;42.624;23.334;2023-04-30T12:24:16;93060.13;;;17.07;84.51
12475;BME280;6302;42.624;23.334;2023-04-30T12:26:43;93061.88;;;17.01;84.59
12475;BME280;6302;42.624;23.334;2023-04-30T12:29:14;93067.19;;;16.70;83.69
12475;BME280;6302;42.624;23.334;2023-04-30T12:31:41;93080.28;;;16.21;88.32
12475;BME280;6302;42.624;23.334;2023-04-30T12:34:10;93087.78;;;16.14;91.10
12475;BME280;6302;42.624;23.334;2023-04-30T12:36:39;93084.09;;;15.86;93.15
12475;BME280;6302;42.624;23.334;2023-04-30T12:39:10;93081.53;;;15.70;94.28
12475;BME280;6302;42.624;23.334;2023-04-30T12:41:39;93088.28;;;15.62;94.87
12475;BME280;6302;42.624;23.334;2023-04-30T12:44:17;93083.69;;;15.63;97.14
12475;BME280;6302;42.624;23.334;2023-04-30T12:46:44;93090.94;;;15.62;97.54
12475;BME280;6302;42.624;23.334;2023-04-30T12:49:21;93090.81;;;15.40;94.64
12475;BME280;6302;42.624;23.334;2023-04-30T12:51:49;93079.59;;;15.33;98.85
12475;BME280;6302;42.624;23.334;2023-04-30T12:54:25;93086.19;;;15.41;98.74
12475;BME280;6302;42.624;23.334;2023-04-30T12:56:59;93090.41;;;15.54;98.56
12475;BME280;6302;42.624;23.334;2023-04-30T12:59:27;93094.56;;;15.68;98.44
12475;BME280;6302;42.624;23.334;2023-04-30T13:01:53;93089.66;;;15.79;97.97
12475;BME280;6302;42.624;23.334;2023-04-30T13:04:20;93084.72;;;15.90;100.00